createdAt,value
2023-04-26T00:01:55.319Z,96819.04
2023-04-26T00:04:29.657Z,96823.64
2023-04-26T00:07:02.093Z,96825.56
2023-04-26T00:09:34.088Z,96827.86
2023-04-26T00:12:18.036Z,96827.39
2023-04-26T00:14:50.303Z,96828.45
2023-04-26T00:17:22.973Z,96829.27
2023-04-26T00:19:57.913Z,96828.02
2023-04-26T00:22:30.373Z,96834.42
2023-04-26T00:25:02.862Z,96835.44
2023-04-26T00:27:35.060Z,96838.43
2023-04-26T00:30:08.692Z,96838.36
2023-04-26T00:32:39.112Z,96836.80
2023-04-26T00:35:12.563Z,96839.60
2023-04-26T00:37:47.013Z,96838.33
2023-04-26T00:40:20.918Z,96841.16
2023-04-26T00:42:58.442Z,96843.42
2023-04-26T00:45:31.009Z,96840.23
2023-04-26T00:48:05.158Z,96842.45
2023-04-26T00:50:37.384Z,96841.16
2023-04-26T00:53:10.755Z,96839.52
2023-04-26T00:55:42.047Z,96844.46
2023-04-26T00:58:14.765Z,96852.05
2023-04-26T01:00:46.841Z,96855.09
2023-04-26T01:03:19.178Z,96853.29
2023-04-26T01:05:52.003Z,96852.92
2023-04-26T01:08:25.258Z,96856.09
2023-04-26T01:10:58.742Z,96856.30
2023-04-26T01:13:33.585Z,96862.89
2023-04-26T01:16:06.633Z,96858.79
2023-04-26T01:18:38.823Z,96861.38
2023-04-26T01:21:11.702Z,96860.73
2023-04-26T01:23:43.880Z,96858.39
2023-04-26T01:26:15.909Z,96865.30
2023-04-26T01:28:49.865Z,96865.58
2023-04-26T01:31:22.836Z,96869.48
2023-04-26T01:33:55.057Z,96872.34
2023-04-26T01:36:27.253Z,96875.83
2023-04-26T01:38:59.197Z,96874.53
2023-04-26T01:41:31.790Z,96876.00
2023-04-26T01:44:05.863Z,96877.90
2023-04-26T01:46:37.936Z,96881.14
2023-04-26T01:49:10.047Z,96879.52
2023-04-26T01:51:42.320Z,96883.09
2023-04-26T01:54:14.731Z,96884.95
2023-04-26T01:56:46.932Z,96887.27
2023-04-26T01:59:19.168Z,96884.41
2023-04-26T02:01:51.231Z,96882.95
2023-04-26T02:04:24.450Z,96883.02
2023-04-26T02:06:57.420Z,96881.46
2023-04-26T02:09:29.506Z,96884.73
2023-04-26T02:12:04.456Z,96886.58
2023-04-26T02:14:36.811Z,96886.82
2023-04-26T02:17:14.213Z,96886.45
2023-04-26T02:19:46.581Z,96885.84
2023-04-26T02:22:18.857Z,96885.88
2023-04-26T02:24:51.502Z,96886.92
2023-04-26T02:27:23.585Z,96891.24
2023-04-26T02:29:55.781Z,96889.73
2023-04-26T02:32:28.656Z,96889.50
2023-04-26T02:35:02.929Z,96885.91
2023-04-26T02:37:36.016Z,96884.44
2023-04-26T02:40:12.062Z,96883.25
2023-04-26T02:42:46.677Z,96880.23
2023-04-26T02:45:19.397Z,96883.08
2023-04-26T02:47:51.704Z,96886.34
2023-04-26T02:50:24.049Z,96888.31
2023-04-26T02:52:56.912Z,96894.20
2023-04-26T02:55:29.139Z,96897.11
2023-04-26T02:58:01.257Z,96898.69
2023-04-26T03:00:34.474Z,96899.81
2023-04-26T03:03:07.199Z,96900.85
2023-04-26T03:05:39.447Z,96903.59
2023-04-26T03:08:12.149Z,96905.66
2023-04-26T03:10:45.730Z,96907.30
2023-04-26T03:13:17.723Z,96909.75
2023-04-26T03:15:52.572Z,96913.41
2023-04-26T03:18:26.664Z,96919.11
2023-04-26T03:20:59.390Z,96921.88
2023-04-26T03:23:32.109Z,96924.99
2023-04-26T03:26:05.038Z,96928.08
2023-04-26T03:28:37.364Z,96926.55
2023-04-26T03:31:09.557Z,96930.64
2023-04-26T03:33:42.061Z,96933.73
2023-04-26T03:36:14.210Z,96933.05
2023-04-26T03:38:47.998Z,96934.77
2023-04-26T03:41:20.452Z,96936.54
2023-04-26T03:43:52.893Z,96942.92
2023-04-26T03:46:25.219Z,96946.09
2023-04-26T03:48:57.254Z,96946.30
2023-04-26T03:51:31.720Z,96944.86
2023-04-26T03:54:03.973Z,96952.23
2023-04-26T03:56:36.981Z,96948.52
2023-04-26T03:59:10.074Z,96947.15
2023-04-26T04:01:41.189Z,96949.23
2023-04-26T04:04:13.716Z,96952.86
2023-04-26T04:06:46.592Z,96956.83
2023-04-26T04:09:18.949Z,96957.04
2023-04-26T04:11:51.222Z,96964.35
2023-04-26T04:14:23.400Z,96963.67
2023-04-26T04:16:55.678Z,96970.73
2023-04-26T04:19:27.892Z,96979.07
2023-04-26T04:22:00.380Z,96980.95
2023-04-26T04:24:34.388Z,96981.44
2023-04-26T04:27:06.674Z,96980.52
2023-04-26T04:29:38.829Z,96985.11
2023-04-26T04:32:14.085Z,96985.45
2023-04-26T04:34:49.501Z,96989.84
2023-04-26T04:37:23.134Z,96988.48
2023-04-26T04:39:55.803Z,96995.65
2023-04-26T04:42:27.586Z,96997.02
2023-04-26T04:45:01.528Z,96996.66
2023-04-26T04:47:38.419Z,96997.55
2023-04-26T04:50:11.894Z,96997.06
2023-04-26T04:52:45.319Z,96999.19
2023-04-26T04:55:17.604Z,96999.92
2023-04-26T04:57:50.141Z,97004.58
2023-04-26T05:00:23.489Z,97005.96
2023-04-26T05:03:05.475Z,97009.94
2023-04-26T05:05:37.976Z,97011.81
2023-04-26T05:08:10.149Z,97023.17
2023-04-26T05:10:42.263Z,97021.02
2023-04-26T05:13:14.808Z,97027.38
2023-04-26T05:15:47.044Z,97030.71
2023-04-26T05:18:19.656Z,97031.47
2023-04-26T05:20:54.742Z,97029.87
2023-04-26T05:23:26.967Z,97036.27
2023-04-26T05:26:02.974Z,97037.56
2023-04-26T05:29:01.578Z,97042.17
2023-04-26T05:31:47.371Z,97040.91
2023-04-26T05:34:48.741Z,97043.73
2023-04-26T05:37:22.073Z,97042.23
2023-04-26T05:39:54.174Z,97040.26
2023-04-26T05:42:26.601Z,97039.08
2023-04-26T05:45:01.715Z,97039.29
2023-04-26T05:47:33.778Z,97039.51
2023-04-26T05:50:06.321Z,97045.36
2023-04-26T05:52:38.402Z,97045.41
2023-04-26T05:55:13.600Z,97046.92
2023-04-26T05:57:45.878Z,97047.52
2023-04-26T06:00:23.720Z,97050.35
2023-04-26T06:02:55.975Z,97049.64
2023-04-26T06:05:29.257Z,97050.94
2023-04-26T06:08:03.027Z,97054.84
2023-04-26T06:10:37.720Z,97050.99
2023-04-26T06:13:09.770Z,97055.43
2023-04-26T06:15:43.398Z,97052.39
2023-04-26T06:18:15.928Z,97052.35
2023-04-26T06:20:49.225Z,97054.77
2023-04-26T06:23:21.253Z,97057.70
2023-04-26T06:25:53.382Z,97056.88
2023-04-26T06:28:26.530Z,97055.04
2023-04-26T06:30:58.645Z,97053.90
2023-04-26T06:33:31.100Z,97051.95
2023-04-26T06:36:03.328Z,97054.39
2023-04-26T06:38:35.979Z,97058.24
2023-04-26T06:41:09.336Z,97055.84
2023-04-26T06:43:42.222Z,97058.34
2023-04-26T06:46:35.893Z,97059.53
2023-04-26T06:49:08.926Z,97056.07
2023-04-26T06:51:41.671Z,97058.48
2023-04-26T06:54:14.024Z,97067.11
2023-04-26T06:56:46.183Z,97070.04
2023-04-26T06:59:18.477Z,97075.06
2023-04-26T07:01:50.723Z,97077.58
2023-04-26T07:04:25.014Z,97076.95
2023-04-26T07:06:58.829Z,97075.77
2023-04-26T07:09:29.048Z,97079.39
2023-04-26T07:12:01.645Z,97078.39
2023-04-26T07:14:33.837Z,97083.04
2023-04-26T07:17:06.325Z,97078.48
2023-04-26T07:19:39.098Z,97077.56
2023-04-26T07:22:11.435Z,97080.61
2023-04-26T07:24:45.049Z,97082.36
2023-04-26T07:27:15.224Z,97084.43
2023-04-26T07:29:47.254Z,97084.40
2023-04-26T07:32:19.366Z,97088.77
2023-04-26T07:34:54.612Z,97092.50
2023-04-26T07:37:27.060Z,97093.13
2023-04-26T07:39:59.206Z,97097.32
2023-04-26T07:42:31.720Z,97101.35
2023-04-26T07:45:04.251Z,97102.80
2023-04-26T07:47:36.762Z,97105.69
2023-04-26T07:50:12.140Z,97104.69
2023-04-26T07:52:45.104Z,97103.73
2023-04-26T07:55:17.832Z,97104.55
2023-04-26T07:57:50.025Z,97107.61
2023-04-26T08:00:25.488Z,97111.52
2023-04-26T08:02:57.934Z,97110.11
2023-04-26T08:05:30.550Z,97112.20
2023-04-26T08:08:03.096Z,97112.84
2023-04-26T08:10:35.322Z,97112.21
2023-04-26T08:13:07.606Z,97112.94
2023-04-26T08:15:40.017Z,97118.35
2023-04-26T08:18:13.503Z,97114.23
2023-04-26T08:20:45.920Z,97118.02
2023-04-26T08:23:19.841Z,97117.45
2023-04-26T08:25:52.382Z,97118.05
2023-04-26T08:28:24.745Z,97116.59
2023-04-26T08:30:57.040Z,97117.60
2023-04-26T08:33:29.157Z,97116.96
2023-04-26T08:36:02.720Z,97118.64
2023-04-26T08:38:35.764Z,97122.21
2023-04-26T08:41:11.292Z,97121.73
2023-04-26T08:43:44.370Z,97122.16
2023-04-26T08:46:21.043Z,97123.45
2023-04-26T08:48:56.692Z,97120.54
2023-04-26T08:51:30.122Z,97120.86
2023-04-26T08:54:03.469Z,97118.63
2023-04-26T08:56:37.475Z,97122.27
2023-04-26T08:59:12.074Z,97125.86
2023-04-26T09:01:47.205Z,97122.25
2023-04-26T09:04:19.930Z,97115.67
2023-04-26T09:06:55.472Z,97117.70
2023-04-26T09:09:29.838Z,97119.55
2023-04-26T09:12:03.791Z,97128.76
2023-04-26T09:14:36.667Z,97129.67
2023-04-26T09:17:25.873Z,97124.21
2023-04-26T09:19:59.044Z,97123.23
2023-04-26T09:22:37.425Z,97130.02
2023-04-26T09:25:11.775Z,97125.65
2023-04-26T09:27:45.630Z,97131.37
2023-04-26T09:30:21.178Z,97134.41
2023-04-26T09:32:58.316Z,97133.55
2023-04-26T09:35:34.486Z,97132.50
2023-04-26T09:38:12.761Z,97134.42
2023-04-26T09:40:47.076Z,97130.97
2023-04-26T09:43:21.024Z,97126.42
2023-04-26T09:45:54.791Z,97124.90
2023-04-26T09:48:31.036Z,97123.91
2023-04-26T09:51:12.960Z,97127.05
2023-04-26T09:53:50.207Z,97129.83
2023-04-26T09:56:23.880Z,97127.23
2023-04-26T09:59:05.386Z,97128.36
2023-04-26T10:01:38.870Z,97130.02
2023-04-26T10:04:09.564Z,97132.98
2023-04-26T10:06:42.091Z,97136.50
2023-04-26T10:09:15.719Z,97133.02
2023-04-26T10:11:46.652Z,97131.23
2023-04-26T10:14:19.783Z,97132.02
2023-04-26T10:16:53.552Z,97130.28
2023-04-26T10:19:27.511Z,97127.58
2023-04-26T10:22:06.524Z,97123.40
2023-04-26T10:24:41.829Z,97124.16
2023-04-26T10:27:13.961Z,97124.66
2023-04-26T10:30:12.367Z,97124.50
2023-04-26T10:33:16.728Z,97120.98
2023-04-26T10:36:12.100Z,97122.91
2023-04-26T10:39:06.073Z,97136.39
2023-04-26T10:41:40.386Z,97139.05
2023-04-26T10:44:46.182Z,97139.83
2023-04-26T10:47:33.719Z,97136.92
2023-04-26T10:50:11.726Z,97142.08
2023-04-26T10:53:10.771Z,97133.30
2023-04-26T10:55:46.351Z,97136.90
2023-04-26T10:58:42.503Z,97130.55
2023-04-26T11:01:20.833Z,97132.30
2023-04-26T11:04:15.007Z,97137.77
2023-04-26T11:06:54.454Z,97138.83
2023-04-26T11:09:49.695Z,97146.39
2023-04-26T11:12:23.844Z,97147.39
2023-04-26T11:14:57.081Z,97154.29
2023-04-26T11:17:29.228Z,97159.30
2023-04-26T11:20:07.593Z,97160.20
2023-04-26T11:22:43.618Z,97160.96
2023-04-26T11:25:17.568Z,97165.04
2023-04-26T11:27:50.365Z,97164.92
2023-04-26T11:30:25.149Z,97165.02
2023-04-26T11:32:57.358Z,97164.80
2023-04-26T11:35:31.132Z,97167.44
2023-04-26T11:38:02.223Z,97167.48
2023-04-26T11:40:37.700Z,97168.08
2023-04-26T11:43:10.642Z,97174.14
2023-04-26T11:45:42.973Z,97169.20
2023-04-26T11:48:16.053Z,97165.38
2023-04-26T11:50:49.468Z,97161.99
2023-04-26T11:53:22.121Z,97159.32
2023-04-26T11:55:55.343Z,97166.96
2023-04-26T11:58:27.714Z,97173.92
2023-04-26T12:01:03.795Z,97178.63
2023-04-26T12:03:38.175Z,97181.43
2023-04-26T12:06:10.775Z,97187.12
2023-04-26T12:08:43.673Z,97189.96
2023-04-26T12:11:20.533Z,97188.52
2023-04-26T12:13:52.490Z,97189.34
2023-04-26T12:16:27.093Z,97193.00
2023-04-26T12:19:00.144Z,97195.44
2023-04-26T12:21:41.952Z,97193.59
2023-04-26T12:24:26.312Z,97194.70
2023-04-26T12:27:00.404Z,97192.66
2023-04-26T12:29:35.785Z,97190.86
2023-04-26T12:32:08.404Z,97192.06
2023-04-26T12:34:40.923Z,97194.41
2023-04-26T12:37:13.115Z,97190.65
2023-04-26T12:39:47.370Z,97184.30
2023-04-26T12:42:19.400Z,97187.68
2023-04-26T12:44:51.544Z,97195.21
2023-04-26T12:47:24.153Z,97196.45
2023-04-26T12:49:57.163Z,97196.41
2023-04-26T12:52:29.378Z,97194.21
2023-04-26T12:55:01.545Z,97187.80
2023-04-26T12:57:33.786Z,97187.19
2023-04-26T13:00:07.948Z,97183.23
2023-04-26T13:02:41.041Z,97183.55
2023-04-26T13:05:14.563Z,97185.30
2023-04-26T13:07:48.474Z,97189.13
2023-04-26T13:10:20.975Z,97192.63
2023-04-26T13:12:54.186Z,97200.67
2023-04-26T13:15:27.850Z,97206.05
2023-04-26T13:18:00.335Z,97213.27
2023-04-26T13:20:32.643Z,97219.20
2023-04-26T13:23:05.185Z,97217.18
2023-04-26T13:25:37.747Z,97221.61
2023-04-26T13:28:10.002Z,97217.28
2023-04-26T13:30:45.448Z,97219.59
2023-04-26T13:33:17.805Z,97219.03
2023-04-26T13:35:52.146Z,97220.91
2023-04-26T13:38:26.878Z,97220.73
2023-04-26T13:41:00.352Z,97223.38
2023-04-26T13:43:35.397Z,97221.35
2023-04-26T13:46:08.282Z,97222.02
2023-04-26T13:48:40.644Z,97215.41
2023-04-26T13:51:13.143Z,97220.15
2023-04-26T13:53:45.322Z,97227.91
2023-04-26T13:56:17.773Z,97236.16
2023-04-26T13:58:50.465Z,97238.96
2023-04-26T14:01:23.620Z,97244.70
2023-04-26T14:03:56.436Z,97241.73
2023-04-26T14:06:27.491Z,97243.13
2023-04-26T14:08:59.549Z,97240.56
2023-04-26T14:11:35.474Z,97245.39
2023-04-26T14:14:08.512Z,97244.55
2023-04-26T14:16:40.848Z,97244.48
2023-04-26T14:19:15.132Z,97246.17
2023-04-26T14:21:47.664Z,97249.25
2023-04-26T14:24:19.821Z,97251.32
2023-04-26T14:26:52.141Z,97250.17
2023-04-26T14:29:25.083Z,97257.71
2023-04-26T14:31:57.160Z,97260.19
2023-04-26T14:34:29.825Z,97266.16
2023-04-26T14:37:04.327Z,97266.11
2023-04-26T14:39:37.678Z,97270.59
2023-04-26T14:42:10.184Z,97274.40
2023-04-26T14:44:43.402Z,97277.73
2023-04-26T14:47:19.081Z,97273.72
2023-04-26T14:49:51.004Z,97276.88
2023-04-26T14:52:27.235Z,97277.27
2023-04-26T14:54:59.610Z,97271.02
2023-04-26T14:57:32.779Z,97273.55
2023-04-26T15:00:09.002Z,97278.33
2023-04-26T15:02:41.490Z,97274.45
2023-04-26T15:05:14.784Z,97277.36
2023-04-26T15:07:46.927Z,97282.27
2023-04-26T15:10:21.054Z,97284.72
2023-04-26T15:12:53.322Z,97284.56
2023-04-26T15:15:25.797Z,97281.93
2023-04-26T15:17:58.191Z,97281.41
2023-04-26T15:20:30.412Z,97284.39
2023-04-26T15:23:02.941Z,97284.52
2023-04-26T15:25:38.216Z,97290.84
2023-04-26T15:28:16.525Z,97304.18
2023-04-26T15:30:50.850Z,97307.07
2023-04-26T15:33:24.596Z,97306.04
2023-04-26T15:35:56.819Z,97310.05
2023-04-26T15:38:28.921Z,97313.85
2023-04-26T15:41:00.978Z,97311.98
2023-04-26T15:43:34.016Z,97312.96
2023-04-26T15:46:06.213Z,97311.92
2023-04-26T15:48:38.721Z,97313.60
2023-04-26T15:51:11.105Z,97315.73
2023-04-26T15:53:46.882Z,97318.53
2023-04-26T15:56:20.144Z,97315.17
2023-04-26T15:58:52.590Z,97312.94
2023-04-26T16:01:24.618Z,97312.02
2023-04-26T16:03:58.050Z,97310.98
2023-04-26T16:06:30.645Z,97310.91
2023-04-26T16:09:20.850Z,97311.48
2023-04-26T16:11:57.419Z,97315.16
2023-04-26T16:14:29.583Z,97321.50
2023-04-26T16:17:01.922Z,97321.52
2023-04-26T16:19:43.565Z,97322.86
2023-04-26T16:22:15.794Z,97325.35
2023-04-26T16:24:56.674Z,97326.79
2023-04-26T16:27:29.087Z,97322.66
2023-04-26T16:30:01.400Z,97320.42
2023-04-26T16:32:34.403Z,97321.20
2023-04-26T16:35:09.021Z,97320.85
2023-04-26T16:37:44.722Z,97325.48
2023-04-26T16:40:17.442Z,97324.89
2023-04-26T16:42:48.673Z,97322.30
2023-04-26T16:45:21.213Z,97328.05
2023-04-26T16:47:53.919Z,97326.11
2023-04-26T16:50:26.478Z,97327.69
2023-04-26T16:52:59.308Z,97329.80
2023-04-26T16:55:31.822Z,97335.52
2023-04-26T16:58:04.094Z,97336.14
2023-04-26T17:00:36.817Z,97335.35
2023-04-26T17:03:09.720Z,97343.52
2023-04-26T17:05:43.289Z,97347.00
2023-04-26T17:08:15.662Z,97353.02
2023-04-26T17:10:48.642Z,97354.30
2023-04-26T17:13:21.030Z,97358.67
2023-04-26T17:15:55.641Z,97361.99
2023-04-26T17:18:28.432Z,97366.11
2023-04-26T17:21:02.003Z,97375.70
2023-04-26T17:23:33.875Z,97375.93
2023-04-26T17:26:06.173Z,97376.63
2023-04-26T17:28:39.297Z,97379.04
2023-04-26T17:31:11.538Z,97380.16
2023-04-26T17:33:44.172Z,97380.45
2023-04-26T17:36:16.505Z,97380.41
2023-04-26T17:38:50.285Z,97383.18
2023-04-26T17:41:23.126Z,97386.61
2023-04-26T17:43:56.816Z,97388.34
2023-04-26T17:46:29.086Z,97394.09
2023-04-26T17:49:01.422Z,97396.81
2023-04-26T17:51:34.524Z,97400.85
2023-04-26T17:54:06.989Z,97398.58
2023-04-26T17:56:39.266Z,97402.26
2023-04-26T17:59:11.558Z,97404.55
2023-04-26T18:01:43.732Z,97404.61
2023-04-26T18:04:16.464Z,97410.75
2023-04-26T18:06:49.854Z,97406.94
2023-04-26T18:09:22.085Z,97410.85
2023-04-26T18:11:56.435Z,97413.42
2023-04-26T18:14:30.723Z,97413.68
2023-04-26T18:17:06.280Z,97415.15
2023-04-26T18:19:39.347Z,97420.33
2023-04-26T18:22:11.590Z,97420.56
2023-04-26T18:24:47.273Z,97422.77
2023-04-26T18:27:20.477Z,97427.60
2023-04-26T18:29:52.982Z,97424.70
2023-04-26T18:32:28.902Z,97431.52
2023-04-26T18:35:01.274Z,97434.96
2023-04-26T18:37:36.253Z,97436.89
2023-04-26T18:40:12.143Z,97439.54
2023-04-26T18:42:45.964Z,97441.67
2023-04-26T18:45:19.126Z,97443.41
2023-04-26T18:47:54.008Z,97447.76
2023-04-26T18:50:28.976Z,97451.16
2023-04-26T18:53:02.900Z,97450.06
2023-04-26T18:55:35.883Z,97454.34
2023-04-26T18:58:09.247Z,97458.52
2023-04-26T19:00:43.454Z,97457.04
2023-04-26T19:03:16.787Z,97460.04
2023-04-26T19:05:51.426Z,97460.90
2023-04-26T19:08:28.274Z,97466.45
2023-04-26T19:11:00.917Z,97468.08
2023-04-26T19:13:34.675Z,97470.23
2023-04-26T19:16:07.829Z,97471.82
2023-04-26T19:18:42.116Z,97475.66
2023-04-26T19:21:14.332Z,97477.63
2023-04-26T19:23:46.822Z,97477.34
2023-04-26T19:26:19.155Z,97479.29
2023-04-26T19:28:51.765Z,97480.88
2023-04-26T19:31:23.924Z,97478.46
2023-04-26T19:33:56.075Z,97477.85
2023-04-26T19:36:29.059Z,97482.14
2023-04-26T19:39:01.521Z,97480.30
2023-04-26T19:41:33.599Z,97481.65
2023-04-26T19:44:05.682Z,97485.83
2023-04-26T19:46:38.279Z,97483.80
2023-04-26T19:49:12.947Z,97482.44
2023-04-26T19:51:45.369Z,97487.11
2023-04-26T19:54:20.247Z,97487.33
2023-04-26T19:56:52.510Z,97486.88
2023-04-26T19:59:24.646Z,97487.44
2023-04-26T20:01:57.218Z,97492.29
2023-04-26T20:04:29.261Z,97497.52
2023-04-26T20:07:01.534Z,97499.96
2023-04-26T20:09:34.907Z,97502.93
2023-04-26T20:12:07.398Z,97501.10
2023-04-26T20:14:39.467Z,97503.36
2023-04-26T20:17:11.570Z,97502.54
2023-04-26T20:19:44.134Z,97505.35
2023-04-26T20:22:16.299Z,97506.44
2023-04-26T20:24:48.694Z,97505.67
2023-04-26T20:27:20.815Z,97504.72
2023-04-26T20:29:53.001Z,97504.23
2023-04-26T20:32:25.178Z,97501.39
2023-04-26T20:34:57.676Z,97506.42
2023-04-26T20:37:29.694Z,97504.20
2023-04-26T20:40:02.247Z,97504.91
2023-04-26T20:42:35.763Z,97503.73
2023-04-26T20:45:09.241Z,97505.13
2023-04-26T20:47:41.800Z,97510.82
2023-04-26T20:50:15.409Z,97509.98
2023-04-26T20:52:47.916Z,97510.34
2023-04-26T20:55:20.120Z,97511.55
2023-04-26T20:57:52.282Z,97511.09
2023-04-26T21:00:24.778Z,97515.41
2023-04-26T21:02:56.824Z,97514.92
2023-04-26T21:05:29.278Z,97513.78
2023-04-26T21:08:01.460Z,97513.80
2023-04-26T21:10:33.508Z,97517.58
2023-04-26T21:13:07.823Z,97522.03
2023-04-26T21:15:39.985Z,97522.04
2023-04-26T21:18:12.215Z,97521.86
2023-04-26T21:20:44.537Z,97521.89
2023-04-26T21:23:16.621Z,97528.23
2023-04-26T21:25:49.813Z,97529.42
2023-04-26T21:28:21.950Z,97529.25
2023-04-26T21:31:02.533Z,97533.02
2023-04-26T21:33:34.973Z,97535.60
2023-04-26T21:36:08.237Z,97536.11
2023-04-26T21:38:40.327Z,97539.37
2023-04-26T21:41:12.631Z,97543.46
2023-04-26T21:43:44.747Z,97540.38
2023-04-26T21:46:16.853Z,97543.29
2023-04-26T21:48:49.376Z,97542.60
2023-04-26T21:51:21.549Z,97541.75
2023-04-26T21:53:53.637Z,97545.17
2023-04-26T21:56:26.541Z,97549.28
2023-04-26T21:58:59.056Z,97554.06
2023-04-26T22:01:31.920Z,97554.92
2023-04-26T22:04:04.306Z,97557.82
2023-04-26T22:06:36.548Z,97557.82
2023-04-26T22:09:10.281Z,97563.95
2023-04-26T22:11:42.619Z,97566.86
2023-04-26T22:14:14.607Z,97567.02
2023-04-26T22:16:46.709Z,97571.13
2023-04-26T22:19:18.648Z,97571.30
2023-04-26T22:21:50.788Z,97573.70
2023-04-26T22:24:22.843Z,97574.73
2023-04-26T22:26:55.025Z,97575.94
2023-04-26T22:29:27.249Z,97576.10
2023-04-26T22:31:59.336Z,97577.13
2023-04-26T22:34:31.577Z,97578.49
2023-04-26T22:37:17.209Z,97581.71
2023-04-26T22:39:53.824Z,97583.26
2023-04-26T22:42:26.016Z,97584.63
2023-04-26T22:44:57.838Z,97585.48
2023-04-26T22:47:29.931Z,97584.97
2023-04-26T22:50:02.008Z,97586.33
2023-04-26T22:52:34.013Z,97588.36
2023-04-26T22:55:06.512Z,97585.62
2023-04-26T22:57:38.889Z,97593.32
2023-04-26T23:00:14.870Z,97594.83
2023-04-26T23:02:47.380Z,97596.38
2023-04-26T23:05:20.454Z,97598.92
2023-04-26T23:07:52.662Z,97599.77
2023-04-26T23:10:25.312Z,97603.36
2023-04-26T23:12:57.816Z,97603.36
2023-04-26T23:15:30.087Z,97604.21
2023-04-26T23:18:02.162Z,97605.23
2023-04-26T23:20:34.352Z,97607.77
2023-04-26T23:23:06.533Z,97606.91
2023-04-26T23:25:42.026Z,97605.38
2023-04-26T23:28:14.049Z,97605.88
2023-04-26T23:30:47.683Z,97607.91
2023-04-26T23:33:19.678Z,97605.52
2023-04-26T23:35:52.432Z,97607.40
2023-04-26T23:38:24.412Z,97607.06
2023-04-26T23:40:56.479Z,97607.23
2023-04-26T23:43:28.609Z,97606.38
2023-04-26T23:46:00.746Z,97608.08
2023-04-26T23:48:33.007Z,97607.89
2023-04-26T23:51:05.337Z,97612.50
2023-04-26T23:53:37.319Z,97611.64
2023-04-26T23:56:09.929Z,97613.02
2023-04-26T23:58:42.257Z,97609.77
